Pagrindinis puslapis
METAR-TAF:

METAR-TAF

Oro uostai :

Vardė, Norvegija

platuma: 70-21N, ilguma: 031-03E, Aukštis: 12 m

Dabartinis oras

Ataskaita buvo paskelbta 27 minutes, ne 15:50 UTC
Vėjas 14 kt iš Pietvakarių
Temperatūra -2°C
Drėgmė 86%
Slėgis 1007 hPa
Matomumas 10 km arba daugiau
Mažai debesys ne aukštis 1000 ft

METAR: ENSS 271550Z 22014KT 9999 FEW010 M02/M04 Q1007 RMK WIND 0500FT 22020KT

Laikas: 17:17 (16:17 UTC)

Prognozė

Ataskaita buvo paskelbta 2 valandos ir 17 minutes, ne 14:00 UTC
Prognozė galioja nuo 27 metu 15 UTC su 27 metu 22 UTC
Vėjas 18 kt iš Pietvakarių
Matomumas 10 km arba daugiau
Mažai debesys ne aukštis 3000 ft

TAF: ENSS 271400Z 2715/2722 22018KT 9999 FEW030

Orai ataskaitas ir orų prognozės (METAR, TAF).

turimą stotys yra geltonos ir raudonos taškus žemėlapyje.

Perkelti pele per norėdami pamatyti stoties vardą.

Tada spustelėkite, norėdami matyti oro stebėjimo ir prognozės.

Norėdami pakeisti žemėlapį: spustelėkite ant žalios mygtukų su juodo kryžiaus žemyn,; žalią mygtuką su brūkšneliu, jei norite nutolinti; arba žalių rodyklių gretimoms žemėlapius.


METAR-TAF: